sensor_id;sensor_type;location;lat;lon;timestamp;P1;durP1;ratioP1;P2;durP2;ratioP2
75154;SDS011;63735;44.730;37.818;2022-12-18T00:00:30;6.82;;;1.35;;
75154;SDS011;63735;44.730;37.818;2022-12-18T00:02:56;4.55;;;1.00;;
75154;SDS011;63735;44.730;37.818;2022-12-18T00:05:22;3.92;;;1.60;;
75154;SDS011;63735;44.730;37.818;2022-12-18T00:07:47;4.00;;;1.08;;
75154;SDS011;63735;44.730;37.818;2022-12-18T00:10:13;2.53;;;1.33;;
75154;SDS011;63735;44.730;37.818;2022-12-18T00:12:39;4.57;;;1.60;;
75154;SDS011;63735;44.730;37.818;2022-12-18T00:15:05;3.53;;;1.20;;
75154;SDS011;63735;44.730;37.818;2022-12-18T00:17:32;3.50;;;1.27;;
75154;SDS011;63735;44.730;37.818;2022-12-18T00:19:57;3.08;;;1.38;;
75154;SDS011;63735;44.730;37.818;2022-12-18T00:22:23;6.72;;;1.02;;
75154;SDS011;63735;44.730;37.818;2022-12-18T00:24:49;13.90;;;2.00;;
75154;SDS011;63735;44.730;37.818;2022-12-18T00:27:15;15.77;;;1.98;;
75154;SDS011;63735;44.730;37.818;2022-12-18T00:29:41;5.22;;;1.55;;
75154;SDS011;63735;44.730;37.818;2022-12-18T00:32:07;3.53;;;1.13;;
75154;SDS011;63735;44.730;37.818;2022-12-18T00:34:33;4.75;;;1.27;;
75154;SDS011;63735;44.730;37.818;2022-12-18T00:36:59;10.23;;;1.77;;
75154;SDS011;63735;44.730;37.818;2022-12-18T00:39:24;7.72;;;2.20;;
75154;SDS011;63735;44.730;37.818;2022-12-18T00:41:50;2.08;;;1.30;;
75154;SDS011;63735;44.730;37.818;2022-12-18T00:44:35;1.70;;;1.15;;
75154;SDS011;63735;44.730;37.818;2022-12-18T00:47:01;3.20;;;1.60;;
75154;SDS011;63735;44.730;37.818;2022-12-18T00:49:26;3.15;;;1.27;;
75154;SDS011;63735;44.730;37.818;2022-12-18T00:51:53;2.97;;;1.42;;
75154;SDS011;63735;44.730;37.818;2022-12-18T00:54:19;2.17;;;1.30;;
75154;SDS011;63735;44.730;37.818;2022-12-18T00:56:45;4.38;;;0.80;;
75154;SDS011;63735;44.730;37.818;2022-12-18T00:59:11;9.30;;;1.50;;
75154;SDS011;63735;44.730;37.818;2022-12-18T01:01:37;2.92;;;1.20;;
75154;SDS011;63735;44.730;37.818;2022-12-18T01:04:05;1.73;;;1.23;;
75154;SDS011;63735;44.730;37.818;2022-12-18T01:06:31;1.50;;;0.90;;
75154;SDS011;63735;44.730;37.818;2022-12-18T01:08:57;5.68;;;1.38;;
75154;SDS011;63735;44.730;37.818;2022-12-18T01:11:23;1.85;;;1.17;;
75154;SDS011;63735;44.730;37.818;2022-12-18T01:13:51;1.50;;;1.00;;
75154;SDS011;63735;44.730;37.818;2022-12-18T01:16:18;10.60;;;1.10;;
75154;SDS011;63735;44.730;37.818;2022-12-18T01:18:44;2.92;;;1.33;;
75154;SDS011;63735;44.730;37.818;2022-12-18T01:21:11;5.38;;;1.60;;
75154;SDS011;63735;44.730;37.818;2022-12-18T01:23:39;2.92;;;0.98;;
75154;SDS011;63735;44.730;37.818;2022-12-18T01:26:09;4.28;;;1.15;;
75154;SDS011;63735;44.730;37.818;2022-12-18T01:28:38;7.78;;;1.50;;
75154;SDS011;63735;44.730;37.818;2022-12-18T01:33:49;9.30;;;3.20;;
75154;SDS011;63735;44.730;37.818;2022-12-18T01:36:20;6.68;;;2.00;;
75154;SDS011;63735;44.730;37.818;2022-12-18T01:38:47;2.95;;;1.90;;
75154;SDS011;63735;44.730;37.818;2022-12-18T01:41:15;4.97;;;2.15;;
75154;SDS011;63735;44.730;37.818;2022-12-18T01:43:47;10.18;;;1.40;;
75154;SDS011;63735;44.730;37.818;2022-12-18T01:46:35;8.27;;;3.67;;
75154;SDS011;63735;44.730;37.818;2022-12-18T01:49:01;8.27;;;3.42;;
75154;SDS011;63735;44.730;37.818;2022-12-18T01:51:27;9.60;;;4.80;;
75154;SDS011;63735;44.730;37.818;2022-12-18T01:53:56;7.43;;;3.38;;
75154;SDS011;63735;44.730;37.818;2022-12-18T01:58:53;3.80;;;2.47;;
75154;SDS011;63735;44.730;37.818;2022-12-18T02:01:26;4.75;;;2.15;;
75154;SDS011;63735;44.730;37.818;2022-12-18T02:03:52;4.30;;;2.17;;
75154;SDS011;63735;44.730;37.818;2022-12-18T02:27:56;11.05;;;2.38;;
75154;SDS011;63735;44.730;37.818;2022-12-18T02:30:26;6.07;;;2.40;;
75154;SDS011;63735;44.730;37.818;2022-12-18T02:32:55;4.85;;;2.28;;
75154;SDS011;63735;44.730;37.818;2022-12-18T02:35:23;6.25;;;1.88;;
75154;SDS011;63735;44.730;37.818;2022-12-18T02:37:55;11.25;;;2.00;;
75154;SDS011;63735;44.730;37.818;2022-12-18T02:40:23;3.95;;;1.90;;
75154;SDS011;63735;44.730;37.818;2022-12-18T02:42:52;4.97;;;1.80;;
75154;SDS011;63735;44.730;37.818;2022-12-18T02:45:19;6.63;;;2.00;;
75154;SDS011;63735;44.730;37.818;2022-12-18T02:47:46;4.22;;;2.10;;
75154;SDS011;63735;44.730;37.818;2022-12-18T02:50:22;4.03;;;1.85;;
75154;SDS011;63735;44.730;37.818;2022-12-18T02:56:10;6.30;;;2.35;;
75154;SDS011;63735;44.730;37.818;2022-12-18T03:02:02;1.63;;;0.80;;
75154;SDS011;63735;44.730;37.818;2022-12-18T03:04:43;1.35;;;1.13;;
75154;SDS011;63735;44.730;37.818;2022-12-18T03:07:17;3.47;;;1.17;;
75154;SDS011;63735;44.730;37.818;2022-12-18T03:09:48;3.05;;;1.20;;
75154;SDS011;63735;44.730;37.818;2022-12-18T03:12:29;5.03;;;1.60;;
75154;SDS011;63735;44.730;37.818;2022-12-18T03:15:18;3.78;;;1.42;;
75154;SDS011;63735;44.730;37.818;2022-12-18T03:17:57;1.90;;;0.90;;
75154;SDS011;63735;44.730;37.818;2022-12-18T03:20:30;4.47;;;1.60;;
75154;SDS011;63735;44.730;37.818;2022-12-18T03:23:00;6.45;;;1.48;;
75154;SDS011;63735;44.730;37.818;2022-12-18T03:25:32;4.15;;;1.30;;
75154;SDS011;63735;44.730;37.818;2022-12-18T03:28:00;1.60;;;1.25;;
75154;SDS011;63735;44.730;37.818;2022-12-18T03:30:28;2.47;;;1.27;;
75154;SDS011;63735;44.730;37.818;2022-12-18T03:33:02;2.45;;;1.35;;
75154;SDS011;63735;44.730;37.818;2022-12-18T03:35:37;3.35;;;1.27;;
75154;SDS011;63735;44.730;37.818;2022-12-18T03:38:07;1.08;;;0.88;;
75154;SDS011;63735;44.730;37.818;2022-12-18T03:46:09;4.25;;;1.40;;
75154;SDS011;63735;44.730;37.818;2022-12-18T03:48:46;4.78;;;0.68;;
75154;SDS011;63735;44.730;37.818;2022-12-18T03:54:39;2.05;;;1.35;;
75154;SDS011;63735;44.730;37.818;2022-12-18T03:57:14;2.85;;;1.10;;
75154;SDS011;63735;44.730;37.818;2022-12-18T03:59:44;5.45;;;1.75;;
75154;SDS011;63735;44.730;37.818;2022-12-18T04:02:16;2.53;;;1.10;;
75154;SDS011;63735;44.730;37.818;2022-12-18T04:04:44;3.25;;;0.98;;
75154;SDS011;63735;44.730;37.818;2022-12-18T04:07:13;1.42;;;0.80;;
75154;SDS011;63735;44.730;37.818;2022-12-18T04:09:43;13.80;;;1.60;;
75154;SDS011;63735;44.730;37.818;2022-12-18T04:12:12;4.68;;;1.55;;
75154;SDS011;63735;44.730;37.818;2022-12-18T04:14:38;5.20;;;1.67;;
75154;SDS011;63735;44.730;37.818;2022-12-18T04:17:07;2.03;;;1.58;;
75154;SDS011;63735;44.730;37.818;2022-12-18T04:19:33;2.25;;;0.90;;
75154;SDS011;63735;44.730;37.818;2022-12-18T04:24:30;2.28;;;1.20;;
75154;SDS011;63735;44.730;37.818;2022-12-18T04:27:05;4.60;;;1.52;;
75154;SDS011;63735;44.730;37.818;2022-12-18T04:29:39;1.48;;;0.80;;
75154;SDS011;63735;44.730;37.818;2022-12-18T04:32:05;4.95;;;2.45;;
75154;SDS011;63735;44.730;37.818;2022-12-18T04:34:32;2.80;;;1.25;;
75154;SDS011;63735;44.730;37.818;2022-12-18T04:36:58;1.88;;;1.15;;
75154;SDS011;63735;44.730;37.818;2022-12-18T04:39:24;3.58;;;1.65;;
75154;SDS011;63735;44.730;37.818;2022-12-18T04:41:53;6.13;;;1.80;;
75154;SDS011;63735;44.730;37.818;2022-12-18T04:44:19;3.05;;;1.58;;
75154;SDS011;63735;44.730;37.818;2022-12-18T04:46:45;2.17;;;1.08;;
75154;SDS011;63735;44.730;37.818;2022-12-18T04:49:11;6.05;;;1.10;;
75154;SDS011;63735;44.730;37.818;2022-12-18T04:51:37;2.13;;;1.10;;
75154;SDS011;63735;44.730;37.818;2022-12-18T04:54:04;3.42;;;1.45;;
75154;SDS011;63735;44.730;37.818;2022-12-18T04:56:30;3.25;;;1.27;;
75154;SDS011;63735;44.730;37.818;2022-12-18T04:58:57;3.50;;;0.98;;
75154;SDS011;63735;44.730;37.818;2022-12-18T05:01:23;1.40;;;0.90;;
75154;SDS011;63735;44.730;37.818;2022-12-18T05:03:50;1.75;;;1.08;;
75154;SDS011;63735;44.730;37.818;2022-12-18T05:06:17;1.52;;;0.85;;
75154;SDS011;63735;44.730;37.818;2022-12-18T05:08:43;2.60;;;1.45;;
75154;SDS011;63735;44.730;37.818;2022-12-18T05:11:10;4.53;;;1.50;;
75154;SDS011;63735;44.730;37.818;2022-12-18T05:13:40;3.63;;;1.40;;
75154;SDS011;63735;44.730;37.818;2022-12-18T05:16:06;3.95;;;1.00;;
75154;SDS011;63735;44.730;37.818;2022-12-18T05:18:32;5.13;;;1.67;;
75154;SDS011;63735;44.730;37.818;2022-12-18T05:20:58;3.13;;;1.55;;
75154;SDS011;63735;44.730;37.818;2022-12-18T05:23:24;4.78;;;1.30;;
75154;SDS011;63735;44.730;37.818;2022-12-18T05:25:54;3.03;;;1.75;;
75154;SDS011;63735;44.730;37.818;2022-12-18T05:28:25;4.68;;;1.33;;
75154;SDS011;63735;44.730;37.818;2022-12-18T05:33:20;10.18;;;1.42;;
75154;SDS011;63735;44.730;37.818;2022-12-18T05:35:50;2.08;;;1.30;;
75154;SDS011;63735;44.730;37.818;2022-12-18T05:38:17;2.28;;;0.95;;
75154;SDS011;63735;44.730;37.818;2022-12-18T05:40:44;1.67;;;0.95;;
75154;SDS011;63735;44.730;37.818;2022-12-18T05:43:11;4.90;;;1.67;;
75154;SDS011;63735;44.730;37.818;2022-12-18T05:45:37;3.47;;;1.40;;
75154;SDS011;63735;44.730;37.818;2022-12-18T05:48:04;7.47;;;1.67;;
75154;SDS011;63735;44.730;37.818;2022-12-18T05:50:30;1.38;;;0.93;;
75154;SDS011;63735;44.730;37.818;2022-12-18T05:53:00;3.38;;;1.45;;
75154;SDS011;63735;44.730;37.818;2022-12-18T05:55:27;3.22;;;1.60;;
75154;SDS011;63735;44.730;37.818;2022-12-18T05:57:52;2.63;;;1.27;;
75154;SDS011;63735;44.730;37.818;2022-12-18T06:00:18;1.77;;;1.17;;
75154;SDS011;63735;44.730;37.818;2022-12-18T06:02:47;2.78;;;1.73;;
75154;SDS011;63735;44.730;37.818;2022-12-18T06:05:14;3.70;;;2.10;;
75154;SDS011;63735;44.730;37.818;2022-12-18T06:07:40;3.08;;;1.63;;
75154;SDS011;63735;44.730;37.818;2022-12-18T06:10:06;2.95;;;1.48;;
75154;SDS011;63735;44.730;37.818;2022-12-18T06:12:32;4.47;;;1.77;;
75154;SDS011;63735;44.730;37.818;2022-12-18T06:15:01;2.67;;;1.38;;
75154;SDS011;63735;44.730;37.818;2022-12-18T06:17:28;1.52;;;1.00;;
75154;SDS011;63735;44.730;37.818;2022-12-18T06:19:57;6.57;;;1.70;;
75154;SDS011;63735;44.730;37.818;2022-12-18T06:22:23;2.65;;;1.75;;
75154;SDS011;63735;44.730;37.818;2022-12-18T06:24:49;3.50;;;1.35;;
75154;SDS011;63735;44.730;37.818;2022-12-18T06:27:15;2.50;;;1.60;;
75154;SDS011;63735;44.730;37.818;2022-12-18T06:29:41;4.70;;;1.30;;
75154;SDS011;63735;44.730;37.818;2022-12-18T06:32:07;3.65;;;2.13;;
75154;SDS011;63735;44.730;37.818;2022-12-18T06:34:33;4.85;;;1.75;;
75154;SDS011;63735;44.730;37.818;2022-12-18T06:37:02;2.85;;;1.67;;
75154;SDS011;63735;44.730;37.818;2022-12-18T06:39:28;4.55;;;1.67;;
75154;SDS011;63735;44.730;37.818;2022-12-18T06:41:54;4.40;;;1.45;;
75154;SDS011;63735;44.730;37.818;2022-12-18T06:44:20;5.47;;;1.63;;
75154;SDS011;63735;44.730;37.818;2022-12-18T06:46:46;5.97;;;2.50;;
75154;SDS011;63735;44.730;37.818;2022-12-18T06:49:12;4.95;;;1.65;;
75154;SDS011;63735;44.730;37.818;2022-12-18T06:51:38;6.55;;;1.92;;
75154;SDS011;63735;44.730;37.818;2022-12-18T06:54:04;7.85;;;2.38;;
75154;SDS011;63735;44.730;37.818;2022-12-18T06:56:30;2.33;;;1.00;;
75154;SDS011;63735;44.730;37.818;2022-12-18T06:58:56;7.35;;;1.48;;
75154;SDS011;63735;44.730;37.818;2022-12-18T07:01:22;4.85;;;2.55;;
75154;SDS011;63735;44.730;37.818;2022-12-18T07:03:51;1.50;;;1.20;;
75154;SDS011;63735;44.730;37.818;2022-12-18T07:06:19;2.90;;;1.67;;
75154;SDS011;63735;44.730;37.818;2022-12-18T07:08:47;3.85;;;1.92;;
75154;SDS011;63735;44.730;37.818;2022-12-18T07:11:14;4.93;;;1.73;;
75154;SDS011;63735;44.730;37.818;2022-12-18T07:13:40;2.65;;;1.33;;
75154;SDS011;63735;44.730;37.818;2022-12-18T07:18:37;4.03;;;1.80;;
75154;SDS011;63735;44.730;37.818;2022-12-18T07:21:04;4.63;;;2.50;;
75154;SDS011;63735;44.730;37.818;2022-12-18T07:23:35;1.55;;;1.05;;
75154;SDS011;63735;44.730;37.818;2022-12-18T07:26:02;2.72;;;1.73;;
75154;SDS011;63735;44.730;37.818;2022-12-18T07:28:30;3.38;;;1.90;;
75154;SDS011;63735;44.730;37.818;2022-12-18T07:30:56;6.65;;;2.55;;
75154;SDS011;63735;44.730;37.818;2022-12-18T07:33:22;4.25;;;1.65;;
75154;SDS011;63735;44.730;37.818;2022-12-18T07:35:48;8.23;;;1.98;;
75154;SDS011;63735;44.730;37.818;2022-12-18T07:38:14;4.40;;;2.30;;
75154;SDS011;63735;44.730;37.818;2022-12-18T07:40:40;2.67;;;1.80;;
75154;SDS011;63735;44.730;37.818;2022-12-18T07:43:05;8.48;;;2.40;;
75154;SDS011;63735;44.730;37.818;2022-12-18T07:45:32;7.50;;;2.33;;
75154;SDS011;63735;44.730;37.818;2022-12-18T07:47:58;5.82;;;1.42;;
75154;SDS011;63735;44.730;37.818;2022-12-18T07:50:24;3.85;;;1.83;;
75154;SDS011;63735;44.730;37.818;2022-12-18T07:52:50;5.63;;;2.17;;
75154;SDS011;63735;44.730;37.818;2022-12-18T07:55:15;6.72;;;1.77;;
75154;SDS011;63735;44.730;37.818;2022-12-18T07:57:41;2.65;;;1.27;;
75154;SDS011;63735;44.730;37.818;2022-12-18T08:00:07;3.28;;;1.40;;
75154;SDS011;63735;44.730;37.818;2022-12-18T08:02:37;7.32;;;2.15;;
75154;SDS011;63735;44.730;37.818;2022-12-18T08:05:03;3.17;;;1.65;;
75154;SDS011;63735;44.730;37.818;2022-12-18T08:07:30;2.35;;;1.30;;
75154;SDS011;63735;44.730;37.818;2022-12-18T08:09:55;7.07;;;2.50;;
75154;SDS011;63735;44.730;37.818;2022-12-18T08:12:21;4.60;;;1.77;;
75154;SDS011;63735;44.730;37.818;2022-12-18T08:14:47;2.15;;;1.30;;
75154;SDS011;63735;44.730;37.818;2022-12-18T08:17:13;3.88;;;1.80;;
75154;SDS011;63735;44.730;37.818;2022-12-18T08:19:39;3.08;;;1.67;;
75154;SDS011;63735;44.730;37.818;2022-12-18T08:22:05;1.58;;;0.95;;
75154;SDS011;63735;44.730;37.818;2022-12-18T08:24:31;1.98;;;1.33;;
75154;SDS011;63735;44.730;37.818;2022-12-18T08:26:57;3.85;;;2.10;;
75154;SDS011;63735;44.730;37.818;2022-12-18T08:29:23;8.68;;;1.30;;
75154;SDS011;63735;44.730;37.818;2022-12-18T08:31:49;4.65;;;1.42;;
75154;SDS011;63735;44.730;37.818;2022-12-18T08:34:15;10.25;;;2.25;;
75154;SDS011;63735;44.730;37.818;2022-12-18T08:36:41;6.22;;;2.72;;
75154;SDS011;63735;44.730;37.818;2022-12-18T08:39:06;3.10;;;1.60;;
75154;SDS011;63735;44.730;37.818;2022-12-18T08:41:32;6.15;;;2.55;;
75154;SDS011;63735;44.730;37.818;2022-12-18T08:43:58;8.45;;;3.17;;
75154;SDS011;63735;44.730;37.818;2022-12-18T08:46:43;6.10;;;3.50;;
75154;SDS011;63735;44.730;37.818;2022-12-18T08:49:10;5.63;;;2.97;;
75154;SDS011;63735;44.730;37.818;2022-12-18T08:51:37;2.72;;;1.92;;
75154;SDS011;63735;44.730;37.818;2022-12-18T08:54:04;3.80;;;2.20;;
75154;SDS011;63735;44.730;37.818;2022-12-18T08:56:30;8.98;;;5.00;;
75154;SDS011;63735;44.730;37.818;2022-12-18T08:58:57;7.30;;;3.80;;
75154;SDS011;63735;44.730;37.818;2022-12-18T09:01:23;12.75;;;3.55;;
75154;SDS011;63735;44.730;37.818;2022-12-18T09:03:49;13.85;;;3.22;;
75154;SDS011;63735;44.730;37.818;2022-12-18T09:06:17;12.40;;;3.42;;
75154;SDS011;63735;44.730;37.818;2022-12-18T09:08:44;8.05;;;3.28;;
75154;SDS011;63735;44.730;37.818;2022-12-18T09:11:29;11.88;;;4.30;;
75154;SDS011;63735;44.730;37.818;2022-12-18T09:13:55;4.25;;;1.98;;
75154;SDS011;63735;44.730;37.818;2022-12-18T09:16:23;6.78;;;2.25;;
75154;SDS011;63735;44.730;37.818;2022-12-18T09:21:17;4.45;;;2.47;;
75154;SDS011;63735;44.730;37.818;2022-12-18T09:23:48;7.60;;;2.75;;
75154;SDS011;63735;44.730;37.818;2022-12-18T09:26:15;4.78;;;2.65;;
75154;SDS011;63735;44.730;37.818;2022-12-18T09:28:42;4.47;;;2.25;;
75154;SDS011;63735;44.730;37.818;2022-12-18T09:31:08;6.47;;;3.38;;
75154;SDS011;63735;44.730;37.818;2022-12-18T09:33:36;6.82;;;3.10;;
75154;SDS011;63735;44.730;37.818;2022-12-18T09:36:02;10.63;;;4.43;;
75154;SDS011;63735;44.730;37.818;2022-12-18T09:38:30;4.07;;;2.03;;
75154;SDS011;63735;44.730;37.818;2022-12-18T09:40:58;10.40;;;3.35;;
75154;SDS011;63735;44.730;37.818;2022-12-18T09:46:03;5.55;;;2.53;;
75154;SDS011;63735;44.730;37.818;2022-12-18T09:48:36;1.73;;;1.23;;
75154;SDS011;63735;44.730;37.818;2022-12-18T09:51:27;6.18;;;3.67;;
75154;SDS011;63735;44.730;37.818;2022-12-18T09:53:59;1.50;;;0.95;;
75154;SDS011;63735;44.730;37.818;2022-12-18T09:56:35;6.45;;;2.50;;
75154;SDS011;63735;44.730;37.818;2022-12-18T09:59:03;11.65;;;3.28;;
75154;SDS011;63735;44.730;37.818;2022-12-18T10:01:30;4.03;;;1.88;;
75154;SDS011;63735;44.730;37.818;2022-12-18T10:06:26;5.22;;;2.58;;
75154;SDS011;63735;44.730;37.818;2022-12-18T10:11:51;6.30;;;1.90;;
75154;SDS011;63735;44.730;37.818;2022-12-18T10:17:13;10.27;;;3.03;;
75154;SDS011;63735;44.730;37.818;2022-12-18T10:19:54;23.33;;;2.45;;
75154;SDS011;63735;44.730;37.818;2022-12-18T10:27:38;3.60;;;1.60;;
75154;SDS011;63735;44.730;37.818;2022-12-18T10:30:12;3.60;;;1.42;;
75154;SDS011;63735;44.730;37.818;2022-12-18T10:32:40;4.88;;;2.03;;
75154;SDS011;63735;44.730;37.818;2022-12-18T10:35:17;4.53;;;2.00;;
75154;SDS011;63735;44.730;37.818;2022-12-18T10:41:03;3.67;;;2.17;;
75154;SDS011;63735;44.730;37.818;2022-12-18T10:43:29;6.75;;;2.78;;
75154;SDS011;63735;44.730;37.818;2022-12-18T10:48:55;2.03;;;1.40;;
75154;SDS011;63735;44.730;37.818;2022-12-18T10:51:28;11.52;;;2.85;;
75154;SDS011;63735;44.730;37.818;2022-12-18T10:54:00;7.05;;;3.15;;
75154;SDS011;63735;44.730;37.818;2022-12-18T10:56:31;3.88;;;1.95;;
75154;SDS011;63735;44.730;37.818;2022-12-18T10:59:06;6.45;;;2.60;;
75154;SDS011;63735;44.730;37.818;2022-12-18T11:01:47;7.97;;;2.10;;
75154;SDS011;63735;44.730;37.818;2022-12-18T11:04:24;9.65;;;2.97;;
75154;SDS011;63735;44.730;37.818;2022-12-18T11:07:05;6.05;;;2.88;;
75154;SDS011;63735;44.730;37.818;2022-12-18T11:09:33;9.85;;;3.17;;
75154;SDS011;63735;44.730;37.818;2022-12-18T11:14:45;3.95;;;1.48;;
75154;SDS011;63735;44.730;37.818;2022-12-18T11:19:56;3.35;;;1.52;;
75154;SDS011;63735;44.730;37.818;2022-12-18T11:22:58;3.88;;;1.83;;
75154;SDS011;63735;44.730;37.818;2022-12-18T11:25:31;4.80;;;1.50;;
75154;SDS011;63735;44.730;37.818;2022-12-18T11:28:05;4.82;;;2.72;;
75154;SDS011;63735;44.730;37.818;2022-12-18T11:31:16;8.95;;;2.63;;
75154;SDS011;63735;44.730;37.818;2022-12-18T11:33:46;6.55;;;3.30;;
75154;SDS011;63735;44.730;37.818;2022-12-18T11:36:20;4.05;;;1.00;;
75154;SDS011;63735;44.730;37.818;2022-12-18T11:38:47;2.13;;;1.55;;
75154;SDS011;63735;44.730;37.818;2022-12-18T11:41:24;8.52;;;3.95;;
75154;SDS011;63735;44.730;37.818;2022-12-18T11:44:15;7.82;;;2.30;;
75154;SDS011;63735;44.730;37.818;2022-12-18T11:46:52;13.98;;;4.05;;
75154;SDS011;63735;44.730;37.818;2022-12-18T11:49:27;7.40;;;2.65;;
75154;SDS011;63735;44.730;37.818;2022-12-18T11:52:00;12.88;;;3.72;;
75154;SDS011;63735;44.730;37.818;2022-12-18T11:54:42;9.48;;;3.47;;
75154;SDS011;63735;44.730;37.818;2022-12-18T12:07:55;17.92;;;8.98;;
75154;SDS011;63735;44.730;37.818;2022-12-18T12:10:50;33.35;;;10.50;;
75154;SDS011;63735;44.730;37.818;2022-12-18T12:13:23;30.50;;;11.95;;
75154;SDS011;63735;44.730;37.818;2022-12-18T12:40:17;16.33;;;8.18;;
75154;SDS011;63735;44.730;37.818;2022-12-18T12:42:48;14.88;;;8.27;;
75154;SDS011;63735;44.730;37.818;2022-12-18T12:45:43;14.85;;;7.82;;
75154;SDS011;63735;44.730;37.818;2022-12-18T12:48:15;16.65;;;7.80;;
75154;SDS011;63735;44.730;37.818;2022-12-18T12:50:44;15.35;;;8.40;;
75154;SDS011;63735;44.730;37.818;2022-12-18T12:53:15;18.20;;;8.43;;
75154;SDS011;63735;44.730;37.818;2022-12-18T12:55:49;18.55;;;9.00;;
75154;SDS011;63735;44.730;37.818;2022-12-18T12:58:29;27.33;;;9.85;;
75154;SDS011;63735;44.730;37.818;2022-12-18T13:01:05;18.55;;;10.10;;
75154;SDS011;63735;44.730;37.818;2022-12-18T13:07:04;25.92;;;12.80;;
75154;SDS011;63735;44.730;37.818;2022-12-18T13:12:54;23.48;;;10.73;;
75154;SDS011;63735;44.730;37.818;2022-12-18T13:15:22;23.85;;;11.05;;
75154;SDS011;63735;44.730;37.818;2022-12-18T13:23:04;34.35;;;11.73;;
75154;SDS011;63735;44.730;37.818;2022-12-18T13:26:36;34.08;;;13.02;;
75154;SDS011;63735;44.730;37.818;2022-12-18T13:36:41;42.08;;;15.32;;
75154;SDS011;63735;44.730;37.818;2022-12-18T13:39:15;49.47;;;17.42;;
75154;SDS011;63735;44.730;37.818;2022-12-18T13:44:56;64.57;;;16.42;;
75154;SDS011;63735;44.730;37.818;2022-12-18T13:47:33;42.03;;;16.25;;
75154;SDS011;63735;44.730;37.818;2022-12-18T13:50:09;42.22;;;14.27;;
75154;SDS011;63735;44.730;37.818;2022-12-18T13:52:50;43.25;;;15.57;;
75154;SDS011;63735;44.730;37.818;2022-12-18T13:55:18;43.63;;;15.82;;
75154;SDS011;63735;44.730;37.818;2022-12-18T13:57:45;36.70;;;15.98;;
75154;SDS011;63735;44.730;37.818;2022-12-18T14:00:25;41.70;;;14.80;;
75154;SDS011;63735;44.730;37.818;2022-12-18T14:02:54;36.45;;;13.10;;
75154;SDS011;63735;44.730;37.818;2022-12-18T14:05:24;34.20;;;13.07;;
75154;SDS011;63735;44.730;37.818;2022-12-18T14:07:55;42.85;;;14.32;;
75154;SDS011;63735;44.730;37.818;2022-12-18T14:10:31;43.72;;;15.13;;
75154;SDS011;63735;44.730;37.818;2022-12-18T14:12:58;38.13;;;13.55;;
75154;SDS011;63735;44.730;37.818;2022-12-18T14:15:33;32.85;;;12.30;;
75154;SDS011;63735;44.730;37.818;2022-12-18T14:18:15;33.20;;;12.20;;
75154;SDS011;63735;44.730;37.818;2022-12-18T14:21:02;33.28;;;12.20;;
75154;SDS011;63735;44.730;37.818;2022-12-18T14:25:58;31.85;;;11.65;;
75154;SDS011;63735;44.730;37.818;2022-12-18T14:28:25;28.98;;;11.23;;
75154;SDS011;63735;44.730;37.818;2022-12-18T14:30:51;28.02;;;10.38;;
75154;SDS011;63735;44.730;37.818;2022-12-18T14:33:19;25.15;;;9.75;;
75154;SDS011;63735;44.730;37.818;2022-12-18T14:38:36;23.05;;;9.93;;
75154;SDS011;63735;44.730;37.818;2022-12-18T14:41:09;19.42;;;8.20;;
75154;SDS011;63735;44.730;37.818;2022-12-18T14:43:38;21.48;;;8.05;;
75154;SDS011;63735;44.730;37.818;2022-12-18T14:46:24;27.15;;;8.75;;
75154;SDS011;63735;44.730;37.818;2022-12-18T14:49:16;24.23;;;7.95;;
75154;SDS011;63735;44.730;37.818;2022-12-18T14:51:59;16.73;;;7.80;;
75154;SDS011;63735;44.730;37.818;2022-12-18T14:54:27;17.40;;;8.30;;
75154;SDS011;63735;44.730;37.818;2022-12-18T14:59:31;18.05;;;7.35;;
75154;SDS011;63735;44.730;37.818;2022-12-18T15:02:09;16.13;;;7.82;;
75154;SDS011;63735;44.730;37.818;2022-12-18T15:07:44;13.95;;;6.07;;
75154;SDS011;63735;44.730;37.818;2022-12-18T15:10:16;22.37;;;9.07;;
75154;SDS011;63735;44.730;37.818;2022-12-18T15:12:46;20.25;;;8.88;;
75154;SDS011;63735;44.730;37.818;2022-12-18T15:20:47;16.25;;;6.70;;
75154;SDS011;63735;44.730;37.818;2022-12-18T15:23:19;34.10;;;8.73;;
75154;SDS011;63735;44.730;37.818;2022-12-18T15:25:58;20.45;;;8.25;;
75154;SDS011;63735;44.730;37.818;2022-12-18T15:31:03;22.60;;;8.10;;
75154;SDS011;63735;44.730;37.818;2022-12-18T15:36:18;15.48;;;7.07;;
75154;SDS011;63735;44.730;37.818;2022-12-18T15:38:46;18.25;;;7.80;;
75154;SDS011;63735;44.730;37.818;2022-12-18T15:41:14;17.05;;;7.32;;
75154;SDS011;63735;44.730;37.818;2022-12-18T15:43:41;13.38;;;6.93;;
75154;SDS011;63735;44.730;37.818;2022-12-18T15:46:14;12.45;;;7.00;;
75154;SDS011;63735;44.730;37.818;2022-12-18T15:48:45;14.90;;;7.28;;
75154;SDS011;63735;44.730;37.818;2022-12-18T15:51:19;12.40;;;6.53;;
75154;SDS011;63735;44.730;37.818;2022-12-18T15:53:48;13.50;;;7.82;;
75154;SDS011;63735;44.730;37.818;2022-12-18T15:56:17;6.82;;;4.40;;
75154;SDS011;63735;44.730;37.818;2022-12-18T15:59:01;8.20;;;4.47;;
75154;SDS011;63735;44.730;37.818;2022-12-18T16:01:29;8.80;;;4.97;;
75154;SDS011;63735;44.730;37.818;2022-12-18T16:03:56;6.18;;;2.97;;
75154;SDS011;63735;44.730;37.818;2022-12-18T16:06:22;11.48;;;4.78;;
75154;SDS011;63735;44.730;37.818;2022-12-18T16:08:48;8.00;;;4.10;;
75154;SDS011;63735;44.730;37.818;2022-12-18T16:11:25;12.02;;;4.50;;
75154;SDS011;63735;44.730;37.818;2022-12-18T16:16:31;7.03;;;3.97;;
75154;SDS011;63735;44.730;37.818;2022-12-18T16:18:56;5.65;;;3.30;;
75154;SDS011;63735;44.730;37.818;2022-12-18T16:21:22;7.15;;;3.63;;
75154;SDS011;63735;44.730;37.818;2022-12-18T16:23:48;6.55;;;4.18;;
75154;SDS011;63735;44.730;37.818;2022-12-18T16:26:14;8.70;;;4.38;;
75154;SDS011;63735;44.730;37.818;2022-12-18T16:28:40;7.43;;;5.03;;
75154;SDS011;63735;44.730;37.818;2022-12-18T16:31:07;14.25;;;6.55;;
75154;SDS011;63735;44.730;37.818;2022-12-18T16:33:33;11.55;;;5.53;;
75154;SDS011;63735;44.730;37.818;2022-12-18T16:35:59;10.50;;;5.45;;
75154;SDS011;63735;44.730;37.818;2022-12-18T16:38:25;8.43;;;4.70;;
75154;SDS011;63735;44.730;37.818;2022-12-18T16:40:51;7.72;;;4.82;;
75154;SDS011;63735;44.730;37.818;2022-12-18T16:43:35;7.95;;;4.25;;
75154;SDS011;63735;44.730;37.818;2022-12-18T16:46:01;6.55;;;4.13;;
75154;SDS011;63735;44.730;37.818;2022-12-18T16:48:27;9.93;;;5.70;;
75154;SDS011;63735;44.730;37.818;2022-12-18T16:51:03;7.93;;;4.63;;
75154;SDS011;63735;44.730;37.818;2022-12-18T16:53:30;6.28;;;4.13;;
75154;SDS011;63735;44.730;37.818;2022-12-18T16:55:57;7.13;;;4.50;;
75154;SDS011;63735;44.730;37.818;2022-12-18T16:58:23;5.68;;;4.03;;
75154;SDS011;63735;44.730;37.818;2022-12-18T17:00:49;6.18;;;3.97;;
75154;SDS011;63735;44.730;37.818;2022-12-18T17:03:15;9.20;;;4.22;;
75154;SDS011;63735;44.730;37.818;2022-12-18T17:05:41;7.10;;;4.65;;
75154;SDS011;63735;44.730;37.818;2022-12-18T17:08:07;5.68;;;3.75;;
75154;SDS011;63735;44.730;37.818;2022-12-18T17:10:36;8.45;;;4.47;;
75154;SDS011;63735;44.730;37.818;2022-12-18T17:13:01;7.90;;;4.70;;
75154;SDS011;63735;44.730;37.818;2022-12-18T17:15:27;7.22;;;5.25;;
75154;SDS011;63735;44.730;37.818;2022-12-18T17:17:53;6.00;;;4.20;;
75154;SDS011;63735;44.730;37.818;2022-12-18T17:20:19;6.22;;;4.43;;
75154;SDS011;63735;44.730;37.818;2022-12-18T17:22:45;8.40;;;5.90;;
75154;SDS011;63735;44.730;37.818;2022-12-18T17:25:11;7.88;;;5.03;;
75154;SDS011;63735;44.730;37.818;2022-12-18T17:27:37;7.07;;;5.13;;